TimeEDT,TemperatureF,Dew PointF,Humidity,Sea Level PressureIn,VisibilityMPH,Wind Direction,Wind SpeedMPH,Gust SpeedMPH,PrecipitationIn,Events,Conditions,WindDirDegrees,DateUTC
12:00 AM,8.8,-4.2,56,29.86,-9999.0,NW,8.1,-,N/A,,Unknown,310,2013-03-18 04:00:00
1:00 AM,7.9,-6.3,52,29.87,-9999.0,NW,10.4,17.3,N/A,,Unknown,310,2013-03-18 05:00:00
2:00 AM,5,-9,36,29.90,,NW,11.5,,,,,310,2013-03-18 06:00:00
2:00 AM,5.4,-9.0,52,29.90,-9999.0,NW,11.5,24.2,N/A,,Unknown,310,2013-03-18 06:00:00
3:00 AM,4.5,-9.9,51,29.91,-9999.0,NW,10.4,19.6,N/A,,Unknown,310,2013-03-18 07:00:00
4:00 AM,3.4,-11.2,51,29.92,-9999.0,WNW,10.4,19.6,N/A,,Unknown,300,2013-03-18 08:00:00
5:00 AM,2.5,-13.0,49,29.94,-9999.0,WNW,11.5,18.4,N/A,,Unknown,300,2013-03-18 09:00:00
6:00 AM,1.0,-13.2,51,29.96,-9999.0,WNW,8.1,18.4,N/A,,Unknown,300,2013-03-18 10:00:00
7:00 AM,0.9,-14.1,50,29.98,-9999.0,NW,8.1,19.6,N/A,,Unknown,310,2013-03-18 11:00:00
8:00 AM,3,-14,27,29.99,,WNW,10.4,,,,,300,2013-03-18 12:00:00
8:00 AM,2.7,-14.3,45,29.99,-9999.0,WNW,10.4,18.4,N/A,,Unknown,300,2013-03-18 12:00:00
9:00 AM,5.2,-13.4,42,30.01,-9999.0,WNW,11.5,20.7,N/A,,Unknown,300,2013-03-18 13:00:00
10:00 AM,9.1,-11.7,38,30.02,-9999.0,WNW,9.2,-,N/A,,Unknown,300,2013-03-18 14:00:00
11:00 AM,12.0,-11.9,34,30.02,-9999.0,WNW,12.7,21.9,N/A,,Unknown,300,2013-03-18 15:00:00
12:00 PM,14.9,-9.8,33,30.02,-9999.0,WNW,9.2,19.6,N/A,,Unknown,300,2013-03-18 16:00:00
1:00 PM,16.7,-9.9,30,30.02,-9999.0,WNW,11.5,24.2,N/A,,Unknown,300,2013-03-18 17:00:00
2:00 PM,18,-8,17,30.03,,NW,10.4,,,,,310,2013-03-18 18:00:00
2:00 PM,18.5,-8.0,31,30.03,-9999.0,NW,10.4,19.6,N/A,,Unknown,310,2013-03-18 18:00:00
3:00 PM,19.8,-7.4,30,30.04,-9999.0,WNW,9.2,20.7,N/A,,Unknown,290,2013-03-18 19:00:00
4:00 PM,18.5,-6.7,33,30.06,-9999.0,NW,8.1,18.4,N/A,,Unknown,310,2013-03-18 20:00:00
5:00 PM,17.2,-6.3,35,30.09,-9999.0,WNW,8.1,18.4,N/A,,Unknown,300,2013-03-18 21:00:00
6:00 PM,15.8,-6.5,37,30.12,-9999.0,NNW,5.8,-,N/A,,Unknown,330,2013-03-18 22:00:00
7:00 PM,13.3,-4.9,44,30.16,-9999.0,NW,4.6,-,N/A,,Unknown,310,2013-03-18 23:00:00
8:00 PM,10,-4,37,30.20,,WNW,3.5,,,,,300,2013-03-19 00:00:00
8:00 PM,10.0,-4.0,53,30.20,-9999.0,WNW,3.5,-,N/A,,Unknown,300,2013-03-19 00:00:00
9:00 PM,7.7,-3.6,60,30.24,-9999.0,NNW,3.5,-,N/A,,Unknown,330,2013-03-19 01:00:00
10:00 PM,7.3,-4.4,59,30.27,-9999.0,NW,3.5,-,N/A,,Unknown,320,2013-03-19 02:00:00
11:00 PM,8.2,-6.0,52,30.30,-9999.0,NNW,4.6,-,N/A,,Unknown,330,2013-03-19 03:00:00